Time;durP1;ratioP1;P1;durP2;ratioP2;P2;SDS_P1;SDS_P2;PMS_P1;PMS_P2;Temp;Humidity;BMP_temperature;BMP_pressure;BME280_temperature;BME280_humidity;BME280_pressure;Samples;Min_cycle;Max_cycle;Signal;HPM_P1;HPM_P2
2023/05/02 00:02:04;;;;;;;16.40;15.00;;;;;;;6.45;nan;96965.56;4928221;28;20264;-58
2023/05/02 00:04:32;;;;;;;16.67;15.17;;;;;;;6.41;nan;96967.69;4895369;28;20782;-59
2023/05/02 00:07:00;;;;;;;15.43;14.13;;;;;;;6.28;nan;96954.19;4915880;28;20753;-57
2023/05/02 00:09:29;;;;;;;15.47;14.10;;;;;;;6.31;nan;96974.91;4931459;28;20579;-54
2023/05/02 00:11:58;;;;;;;14.97;13.67;;;;;;;6.23;nan;96968.66;4922285;28;20222;-61
2023/05/02 00:14:26;;;;;;;15.57;14.17;;;;;;;6.19;nan;96972.59;4893151;28;20214;-61
2023/05/02 00:16:53;;;;;;;15.73;14.40;;;;;;;6.23;nan;96970.44;4932873;28;20308;-60
2023/05/02 00:19:21;;;;;;;15.17;13.87;;;;;;;6.26;nan;96964.91;4911934;28;20380;-61
2023/05/02 00:21:49;;;;;;;15.20;13.90;;;;;;;6.21;nan;96969.78;4914098;28;20249;-62
2023/05/02 00:24:17;;;;;;;15.80;14.40;;;;;;;6.14;nan;96968.78;4932693;28;20660;-53
2023/05/02 00:26:45;;;;;;;16.53;15.13;;;;;;;6.05;nan;96971.41;4934777;28;20631;-59
2023/05/02 00:29:14;;;;;;;16.27;14.77;;;;;;;6.00;nan;96972.84;4883156;28;20337;-57
2023/05/02 00:31:42;;;;;;;16.93;15.43;;;;;;;5.97;nan;96976.63;4932495;28;20214;-58
2023/05/02 00:34:09;;;;;;;16.80;15.30;;;;;;;5.94;nan;96974.31;4922559;28;20753;-58
2023/05/02 00:36:37;;;;;;;16.73;14.97;;;;;;;5.92;nan;96978.91;4928211;28;20252;-58
2023/05/02 00:39:05;;;;;;;16.70;15.30;;;;;;;5.89;nan;96973.97;4912244;28;20234;-58
2023/05/02 00:41:32;;;;;;;16.07;14.57;;;;;;;5.89;nan;96979.22;4934845;28;20514;-57
2023/05/02 00:44:00;;;;;;;16.83;15.27;;;;;;;5.85;nan;96973.47;4887978;28;20222;-59
2023/05/02 00:46:30;;;;;;;16.47;15.17;;;;;;;5.79;nan;96972.28;4934096;28;21036;-61
2023/05/02 00:48:57;;;;;;;17.63;16.03;;;;;;;5.79;nan;96974.91;4937336;28;20234;-58
2023/05/02 00:51:26;;;;;;;17.77;16.27;;;;;;;5.87;nan;96975.91;4913219;28;20218;-60
2023/05/02 00:53:53;;;;;;;17.17;15.60;;;;;;;5.83;nan;96979.84;4910162;28;20671;-56
2023/05/02 00:56:21;;;;;;;20.80;19.00;;;;;;;5.72;nan;96976.53;4930934;28;20296;-58
2023/05/02 00:58:49;;;;;;;20.97;19.17;;;;;;;5.69;nan;96984.72;4874011;28;20670;-59
2023/05/02 01:01:34;;;;;;;20.97;18.97;;;;;;;5.67;nan;96985.84;4935152;28;20281;-56
2023/05/02 01:04:08;;;;;;;20.10;18.30;;;;;;;5.62;nan;96988.97;4936139;28;20642;-56
2023/05/02 01:06:43;;;;;;;18.13;16.57;;;;;;;5.60;nan;96983.88;4912585;28;20485;-63
2023/05/02 01:09:22;;;;;;;19.63;17.77;;;;;;;5.54;nan;96986.31;4908901;28;20600;-61
2023/05/02 01:11:53;;;;;;;17.37;15.80;;;;;;;5.56;nan;96992.25;4927050;28;20215;-61
2023/05/02 01:14:22;;;;;;;17.23;15.73;;;;;;;5.55;nan;96996.66;4876989;28;20481;-59
2023/05/02 01:16:52;;;;;;;17.77;16.23;;;;;;;5.53;nan;96992.56;4933067;28;21864;-59
2023/05/02 01:19:25;;;;;;;17.20;15.70;;;;;;;5.50;nan;96989.25;4932490;28;20787;-58
2023/05/02 01:21:53;;;;;;;19.77;17.47;;;;;;;5.45;nan;96993.31;4914132;28;20486;-59
2023/05/02 01:24:26;;;;;;;18.00;16.40;;;;;;;5.45;nan;96996.75;4910165;28;20233;-59
2023/05/02 01:27:02;;;;;;;19.07;17.33;;;;;;;5.45;nan;96995.94;4932441;28;20223;-61
2023/05/02 01:29:32;;;;;;;18.83;17.00;;;;;;;5.43;nan;97003.97;4885264;28;20666;-55
2023/05/02 01:32:01;;;;;;;19.53;17.60;;;;;;;5.42;nan;97009.41;4932390;28;20737;-61
2023/05/02 01:34:31;;;;;;;18.17;16.57;;;;;;;5.43;nan;97009.22;4926843;28;20702;-58
2023/05/02 01:36:59;;;;;;;17.57;15.93;;;;;;;5.39;nan;97012.34;4913881;28;20593;-59
2023/05/02 01:39:27;;;;;;;16.33;14.93;;;;;;;5.33;nan;97021.66;4929610;28;20340;-56
2023/05/02 01:41:56;;;;;;;17.20;15.70;;;;;;;5.32;nan;97017.38;4915081;28;20716;-56
2023/05/02 01:44:24;;;;;;;16.83;15.33;;;;;;;5.34;nan;97016.25;4885898;28;20753;-58
2023/05/02 01:46:55;;;;;;;16.60;15.10;;;;;;;5.33;nan;97012.00;4931623;28;20238;-58
2023/05/02 01:49:24;;;;;;;17.17;15.63;;;;;;;5.36;nan;97013.47;4930889;28;20417;-63
2023/05/02 01:51:52;;;;;;;16.47;15.17;;;;;;;5.32;nan;97023.47;4934448;28;20217;-62
2023/05/02 01:54:21;;;;;;;15.20;14.03;;;;;;;5.31;nan;97027.09;4906719;28;20666;-57
2023/05/02 01:56:49;;;;;;;17.07;15.57;;;;;;;5.29;nan;97029.00;4913505;28;20714;-59
2023/05/02 01:59:19;;;;;;;15.57;14.27;;;;;;;5.28;nan;97037.06;4934062;28;20285;-58
2023/05/02 02:01:48;;;;;;;16.17;14.73;;;;;;;5.23;nan;97037.50;4892149;28;20214;-60
2023/05/02 02:04:19;;;;;;;14.30;13.10;;;;;;;5.20;nan;97030.78;4932258;28;20218;-60
2023/05/02 02:06:51;;;;;;;15.60;14.13;;;;;;;5.21;nan;97036.84;4935486;28;20509;-58
2023/05/02 02:09:19;;;;;;;16.20;14.80;;;;;;;5.21;nan;97037.69;4915424;28;20275;-58
2023/05/02 02:11:49;;;;;;;15.83;14.53;;;;;;;5.18;nan;97034.53;4918059;28;20214;-60
2023/05/02 02:14:20;;;;;;;15.77;14.47;;;;;;;5.14;nan;97039.28;4937857;28;20641;-62
2023/05/02 02:16:48;;;;;;;15.03;13.83;;;;;;;5.14;nan;97041.06;4888708;28;20218;-55
2023/05/02 02:19:18;;;;;;;15.83;14.47;;;;;;;5.10;nan;97037.91;4931205;28;20241;-57
2023/05/02 02:21:48;;;;;;;17.80;16.20;;;;;;;5.03;nan;97035.09;4937206;28;20292;-61
2023/05/02 02:24:17;;;;;;;15.03;13.80;;;;;;;5.03;nan;97047.38;4910648;28;20698;-59
2023/05/02 02:26:45;;;;;;;15.87;14.57;;;;;;;4.97;nan;97048.84;4936978;28;20294;-59
2023/05/02 02:29:12;;;;;;;15.60;14.37;;;;;;;4.98;nan;97050.47;4915079;28;20245;-60
2023/05/02 02:31:40;;;;;;;18.00;16.50;;;;;;;5.00;nan;97055.56;4938710;28;20243;-59
2023/05/02 02:34:08;;;;;;;16.17;14.77;;;;;;;5.03;nan;97056.09;4889052;28;20269;-59
2023/05/02 02:36:42;;;;;;;16.43;15.10;;;;;;;5.03;nan;97056.09;4934156;28;20291;-62
2023/05/02 02:39:17;;;;;;;16.17;14.67;;;;;;;4.99;nan;97065.25;4923110;28;20263;-58
2023/05/02 02:41:51;;;;;;;16.17;14.87;;;;;;;5.01;nan;97063.31;4926618;28;20221;-57
2023/05/02 02:44:27;;;;;;;16.40;14.90;;;;;;;5.02;nan;97058.88;4915105;28;20467;-63
2023/05/02 02:47:01;;;;;;;19.07;17.20;;;;;;;5.03;nan;97066.59;4934845;28;20213;-59
2023/05/02 02:49:39;;;;;;;17.67;15.97;;;;;;;5.08;nan;97058.25;4908207;28;20238;-52
2023/05/02 02:52:17;;;;;;;18.40;16.70;;;;;;;5.05;nan;97066.44;4936473;28;20727;-60
2023/05/02 02:54:46;;;;;;;18.83;17.07;;;;;;;5.10;nan;97066.00;4933220;28;20206;-61
2023/05/02 02:57:17;;;;;;;17.83;16.30;;;;;;;5.13;nan;97056.03;4897381;28;20289;-61
2023/05/02 02:59:51;;;;;;;18.67;17.07;;;;;;;5.09;nan;97067.78;4934787;28;20265;-61
2023/05/02 03:02:19;;;;;;;18.30;16.57;;;;;;;5.05;nan;97069.91;4929902;28;20213;-59
2023/05/02 03:04:47;;;;;;;18.20;16.60;;;;;;;4.96;nan;97062.94;4894589;28;20222;-58
2023/05/02 03:07:16;;;;;;;19.65;17.75;;;;;;;5.01;nan;97068.56;4932920;28;21176;-60
2023/05/02 03:09:45;;;;;;;17.20;15.67;;;;;;;4.91;nan;97068.63;4936469;28;20277;-57
2023/05/02 03:12:13;;;;;;;17.53;16.03;;;;;;;4.91;nan;97073.03;4917484;28;20641;-60
2023/05/02 03:14:42;;;;;;;17.07;15.40;;;;;;;4.91;nan;97068.63;4915248;28;20218;-57
2023/05/02 03:17:10;;;;;;;16.37;15.07;;;;;;;4.87;nan;97076.94;4937439;28;20226;-60
2023/05/02 03:19:38;;;;;;;15.47;14.27;;;;;;;4.84;nan;97069.38;4886651;28;20281;-61
2023/05/02 03:22:05;;;;;;;16.30;15.00;;;;;;;4.85;nan;97074.50;4935009;28;20218;-58
2023/05/02 03:24:34;;;;;;;17.13;15.63;;;;;;;4.85;nan;97074.50;4934981;28;20917;-62
2023/05/02 03:27:02;;;;;;;17.80;16.10;;;;;;;4.72;nan;97077.47;4931599;28;20697;-65
2023/05/02 03:29:30;;;;;;;16.87;15.23;;;;;;;4.71;nan;97080.25;4898045;28;21035;-59
2023/05/02 03:31:58;;;;;;;16.20;14.70;;;;;;;4.71;nan;97072.38;4929058;28;20321;-60
2023/05/02 03:34:25;;;;;;;17.13;15.53;;;;;;;4.63;nan;97079.19;4888805;28;20709;-60
2023/05/02 03:36:53;;;;;;;17.93;16.33;;;;;;;4.63;nan;97076.56;4933066;28;20276;-65
2023/05/02 03:39:21;;;;;;;17.97;16.27;;;;;;;4.66;nan;97079.88;4931864;28;20233;-66
2023/05/02 03:41:50;;;;;;;18.27;16.47;;;;;;;4.59;nan;97077.84;4937457;28;20265;-64
2023/05/02 03:44:17;;;;;;;19.30;17.53;;;;;;;4.56;nan;97082.59;4894818;28;20222;-66
2023/05/02 03:46:45;;;;;;;17.80;16.20;;;;;;;4.54;nan;97087.97;4932522;28;20273;-60
2023/05/02 03:49:13;;;;;;;18.50;16.70;;;;;;;4.55;nan;97091.44;4895831;28;20250;-62
2023/05/02 03:51:41;;;;;;;23.07;18.27;;;;;;;4.53;nan;97093.34;4936410;28;20272;-63
2023/05/02 03:54:09;;;;;;;18.13;16.53;;;;;;;4.52;nan;97095.16;4934073;28;20223;-62
2023/05/02 03:56:37;;;;;;;17.43;15.87;;;;;;;4.59;nan;97093.59;4931345;28;20226;-61
2023/05/02 03:59:06;;;;;;;19.00;17.00;;;;;;;4.62;nan;97108.22;4916526;28;20226;-61
2023/05/02 04:01:34;;;;;;;19.73;17.83;;;;;;;4.67;nan;97102.50;4913772;28;20222;-62
2023/05/02 04:04:02;;;;;;;19.77;17.97;;;;;;;4.73;nan;97102.75;4934909;28;20663;-60
2023/05/02 04:06:30;;;;;;;17.63;16.03;;;;;;;4.84;nan;97099.09;4888128;28;20433;-63
2023/05/02 04:08:59;;;;;;;17.83;16.33;;;;;;;4.85;nan;97098.13;4932191;28;20273;-63
2023/05/02 04:11:27;;;;;;;17.33;15.90;;;;;;;4.78;nan;97107.56;4935136;28;20436;-63
2023/05/02 04:13:54;;;;;;;17.77;16.17;;;;;;;4.80;nan;97103.00;4908884;28;21092;-65
2023/05/02 04:16:23;;;;;;;16.83;15.23;;;;;;;4.83;nan;97110.56;4915976;28;20557;-62
2023/05/02 04:18:51;;;;;;;17.47;15.80;;;;;;;4.87;nan;97106.66;4930296;28;20623;-62
2023/05/02 04:21:19;;;;;;;16.67;15.07;;;;;;;4.90;nan;97105.53;4882233;28;20706;-62
2023/05/02 04:23:47;;;;;;;16.97;15.43;;;;;;;4.89;nan;97117.00;4934705;28;20213;-63
2023/05/02 04:26:15;;;;;;;16.67;15.17;;;;;;;4.99;nan;97116.94;4936112;28;20975;-61
2023/05/02 04:28:43;;;;;;;16.67;15.17;;;;;;;5.09;nan;97117.69;4930187;28;20250;-61
2023/05/02 04:31:10;;;;;;;17.37;15.87;;;;;;;5.16;nan;97117.91;4905901;28;20229;-62
2023/05/02 04:33:39;;;;;;;18.33;16.63;;;;;;;5.21;nan;97118.28;4934895;28;20225;-62
2023/05/02 04:36:09;;;;;;;17.80;16.30;;;;;;;5.29;nan;97126.22;4885972;28;20857;-62
2023/05/02 04:38:37;;;;;;;17.80;16.20;;;;;;;5.38;nan;97126.31;4930339;28;20230;-61
2023/05/02 04:41:05;;;;;;;17.43;15.90;;;;;;;5.43;nan;97124.84;4931403;28;20328;-59
2023/05/02 04:43:35;;;;;;;17.27;15.90;;;;;;;5.43;nan;97132.72;4937601;28;20640;-62
2023/05/02 04:46:03;;;;;;;17.30;15.80;;;;;;;5.49;nan;97132.16;4891473;28;20548;-67
2023/05/02 04:48:32;;;;;;;17.50;16.00;;;;;;;5.52;nan;97138.06;4932551;28;20235;-66
2023/05/02 04:51:01;;;;;;;17.77;16.27;;;;;;;5.61;nan;97131.91;4928085;28;20215;-65
2023/05/02 04:53:29;;;;;;;16.93;15.50;;;;;;;5.66;nan;97137.50;4899082;28;20667;-67
2023/05/02 04:55:57;;;;;;;17.70;16.30;;;;;;;5.66;nan;97140.13;4935182;28;20261;-69
2023/05/02 04:58:25;;;;;;;16.87;15.37;;;;;;;5.74;nan;97145.44;4934115;28;20737;-66
2023/05/02 05:00:54;;;;;;;16.30;14.90;;;;;;;5.78;nan;97146.78;4915345;28;20948;-64
2023/05/02 05:03:22;;;;;;;15.67;14.17;;;;;;;5.73;nan;97151.69;4910472;28;20211;-67
2023/05/02 05:05:50;;;;;;;15.60;14.30;;;;;;;5.83;nan;97151.59;4931526;28;20724;-64
2023/05/02 05:08:19;;;;;;;16.43;14.93;;;;;;;5.88;nan;97157.22;4886859;28;20230;-65
2023/05/02 05:10:47;;;;;;;16.87;15.47;;;;;;;5.90;nan;97154.44;4932253;28;20852;-65
2023/05/02 05:13:15;;;;;;;15.80;14.37;;;;;;;5.91;nan;97156.91;4935673;28;20218;-65
2023/05/02 05:15:43;;;;;;;15.33;13.93;;;;;;;5.94;nan;97168.91;4907942;28;20476;-65
2023/05/02 05:18:11;;;;;;;15.33;14.13;;;;;;;6.09;nan;97171.84;4893418;28;20809;-65
2023/05/02 05:20:39;;;;;;;16.50;15.13;;;;;;;6.07;nan;97174.59;4932600;28;20406;-65
2023/05/02 05:23:06;;;;;;;16.00;14.70;;;;;;;6.27;nan;97182.31;4934750;28;20839;-66
2023/05/02 05:25:36;;;;;;;16.63;15.33;;;;;;;6.28;nan;97183.94;4898955;28;20512;-65
2023/05/02 05:28:03;;;;;;;17.93;16.37;;;;;;;6.58;nan;97181.75;4936276;28;20392;-66
2023/05/02 05:30:31;;;;;;;18.33;16.43;;;;;;;6.70;nan;97184.94;4928853;28;20234;-65
2023/05/02 05:32:59;;;;;;;18.07;16.57;;;;;;;6.71;nan;97183.13;4886678;28;20767;-64
2023/05/02 05:35:27;;;;;;;18.27;16.40;;;;;;;6.54;nan;97180.44;4933849;28;20209;-64
2023/05/02 05:37:54;;;;;;;16.17;14.77;;;;;;;6.83;nan;97179.22;4934012;28;20556;-64
2023/05/02 05:40:22;;;;;;;17.30;15.90;;;;;;;6.83;nan;97183.69;4896379;28;20534;-65
2023/05/02 05:42:51;;;;;;;16.40;15.00;;;;;;;6.95;nan;97185.81;4936537;28;20273;-64
2023/05/02 05:45:19;;;;;;;17.97;16.27;;;;;;;7.13;nan;97186.69;4934964;28;20217;-65
2023/05/02 05:47:47;;;;;;;18.03;16.37;;;;;;;7.18;nan;97181.75;4907663;28;20305;-65
2023/05/02 05:50:15;;;;;;;19.13;17.53;;;;;;;7.37;nan;97185.88;4912770;28;21040;-64
2023/05/02 05:52:42;;;;;;;18.70;16.93;;;;;;;7.38;nan;97187.53;4932163;28;20913;-63
2023/05/02 05:55:10;;;;;;;18.77;16.90;;;;;;;7.42;nan;97188.88;4893203;28;20222;-65
2023/05/02 05:57:38;;;;;;;17.67;15.93;;;;;;;7.49;nan;97183.75;4934915;28;20854;-64
2023/05/02 06:00:09;;;;;;;23.63;16.90;;;;;;;7.06;nan;97182.06;4935849;28;20206;-63
2023/05/02 06:02:37;;;;;;;18.40;16.70;;;;;;;7.35;nan;97188.72;4912015;28;20714;-66
2023/05/02 06:05:05;;;;;;;24.20;21.50;;;;;;;7.31;nan;97197.94;4910419;28;20573;-64
2023/05/02 06:07:33;;;;;;;20.97;18.97;;;;;;;7.61;nan;97190.38;4929977;28;20233;-63
2023/05/02 06:10:01;;;;;;;21.30;19.40;;;;;;;7.73;nan;97195.31;4897604;28;20300;-64
2023/05/02 06:12:29;;;;;;;18.90;17.30;;;;;;;7.86;nan;97195.63;4932421;28;20395;-66
2023/05/02 06:14:56;;;;;;;19.00;17.40;;;;;;;7.82;nan;97196.94;4933066;28;20214;-65
2023/05/02 06:17:26;;;;;;;18.87;17.23;;;;;;;7.97;nan;97200.56;4929498;28;20233;-64
2023/05/02 06:19:54;;;;;;;19.27;17.47;;;;;;;8.14;nan;97192.63;4888660;28;20210;-64
2023/05/02 06:22:21;;;;;;;17.73;16.23;;;;;;;8.30;nan;97194.41;4924819;28;20283;-64
2023/05/02 06:24:49;;;;;;;18.17;16.53;;;;;;;8.25;nan;97197.53;4932953;28;20214;-64
2023/05/02 06:27:17;;;;;;;19.57;17.73;;;;;;;8.28;nan;97196.38;4865728;28;20631;-64
2023/05/02 06:29:45;;;;;;;17.43;15.93;;;;;;;8.47;nan;97194.34;4928358;28;20824;-65
2023/05/02 06:32:12;;;;;;;19.57;17.73;;;;;;;8.59;nan;97205.41;4910227;28;20706;-66
2023/05/02 06:34:41;;;;;;;18.20;16.70;;;;;;;8.81;nan;97198.53;4912999;28;20290;-66
2023/05/02 06:37:09;;;;;;;18.67;17.07;;;;;;;8.83;nan;97200.03;4909024;28;21450;-60
2023/05/02 06:39:37;;;;;;;18.90;17.30;;;;;;;8.89;nan;97205.59;4934022;28;20211;-65
2023/05/02 06:42:05;;;;;;;17.00;15.60;;;;;;;9.02;nan;97211.13;4896787;28;20579;-65
2023/05/02 06:44:32;;;;;;;16.43;15.13;;;;;;;9.19;nan;97208.44;4920819;28;20571;-65
2023/05/02 06:47:00;;;;;;;19.60;17.90;;;;;;;9.38;nan;97212.44;4905468;28;20205;-65
2023/05/02 06:49:28;;;;;;;19.17;17.37;;;;;;;9.42;nan;97216.38;4915328;28;20769;-64
2023/05/02 06:51:57;;;;;;;19.00;17.30;;;;;;;9.44;nan;97213.53;4908552;28;20719;-65
2023/05/02 06:54:25;;;;;;;16.87;15.50;;;;;;;9.36;nan;97223.19;4925389;28;20788;-64
2023/05/02 06:56:54;;;;;;;16.50;15.20;;;;;;;9.48;nan;97217.50;4917389;28;20207;-67
2023/05/02 06:59:22;;;;;;;17.40;15.83;;;;;;;9.42;nan;97221.66;4921716;28;20242;-64
2023/05/02 07:01:51;;;;;;;16.13;14.73;;;;;;;9.69;nan;97230.06;4932493;28;20914;-65
2023/05/02 07:04:18;;;;;;;15.17;13.87;;;;;;;9.58;nan;97236.59;4912959;28;20789;-65
2023/05/02 07:06:46;;;;;;;16.03;14.73;;;;;;;9.98;nan;97224.03;4901051;28;20499;-65
2023/05/02 07:09:16;;;;;;;16.83;15.47;;;;;;;10.29;nan;97232.84;4929674;28;20852;-64
2023/05/02 07:11:43;;;;;;;16.40;15.10;;;;;;;10.14;nan;97231.00;4933931;28;20223;-65
2023/05/02 07:14:11;;;;;;;16.80;15.40;;;;;;;9.88;nan;97242.00;4901876;28;21183;-65
2023/05/02 07:16:39;;;;;;;16.40;15.00;;;;;;;10.07;nan;97231.91;4939188;28;20218;-66
2023/05/02 07:19:07;;;;;;;16.10;14.80;;;;;;;10.17;nan;97239.59;4911925;28;20491;-65
2023/05/02 07:21:35;;;;;;;18.17;16.60;;;;;;;10.20;nan;97244.53;4916576;28;20464;-65
2023/05/02 07:24:03;;;;;;;17.00;15.60;;;;;;;10.64;nan;97238.47;4931408;28;20509;-64
2023/05/02 07:26:32;;;;;;;19.00;17.50;;;;;;;10.60;nan;97239.00;4938377;28;20203;-63
2023/05/02 07:29:00;;;;;;;16.13;14.63;;;;;;;10.88;nan;97246.31;4912605;28;21110;-66
2023/05/02 07:31:28;;;;;;;15.77;14.43;;;;;;;10.99;nan;97249.31;4929679;28;20646;-64
2023/05/02 07:33:56;;;;;;;16.10;14.53;;;;;;;11.20;nan;97253.06;4913620;28;20678;-66
2023/05/02 07:36:23;;;;;;;14.40;13.20;;;;;;;11.25;nan;97255.13;4937275;28;20225;-63
2023/05/02 07:38:51;;;;;;;15.90;14.60;;;;;;;11.52;nan;97248.28;4910938;28;20729;-65
2023/05/02 07:41:19;;;;;;;14.27;13.17;;;;;;;11.57;nan;97251.22;4936984;28;20421;-65
2023/05/02 07:43:48;;;;;;;17.30;15.77;;;;;;;11.57;nan;97253.88;4938972;28;20221;-64
2023/05/02 07:46:15;;;;;;;17.47;15.97;;;;;;;11.57;nan;97255.69;4894087;28;20548;-66
2023/05/02 07:48:43;;;;;;;15.00;13.80;;;;;;;11.87;nan;97247.59;4934362;28;20774;-63
2023/05/02 07:51:11;;;;;;;14.87;13.77;;;;;;;12.37;nan;97254.75;4914527;28;20848;-65
2023/05/02 07:53:39;;;;;;;14.47;13.37;;;;;;;12.09;nan;97253.75;4914219;28;20226;-64
2023/05/02 07:56:07;;;;;;;14.27;13.07;;;;;;;12.32;nan;97252.69;4934938;28;20505;-64
2023/05/02 07:58:35;;;;;;;13.43;12.43;;;;;;;12.20;nan;97262.19;4933899;28;20475;-64
2023/05/02 08:01:05;;;;;;;14.67;13.47;;;;;;;11.94;nan;97271.56;4900607;28;20528;-63
2023/05/02 08:03:32;;;;;;;15.17;14.00;;;;;;;11.79;nan;97277.75;4935542;28;20237;-63
2023/05/02 08:06:00;;;;;;;14.53;13.33;;;;;;;12.33;nan;97264.97;4911861;28;20214;-67
2023/05/02 08:08:28;;;;;;;13.57;12.57;;;;;;;12.96;nan;97273.94;4909743;28;20238;-65
2023/05/02 08:10:56;;;;;;;14.17;13.07;;;;;;;12.62;nan;97273.72;4933452;28;20317;-65
2023/05/02 08:13:24;;;;;;;13.97;12.83;;;;;;;12.62;nan;97280.91;4939385;28;20859;-64
2023/05/02 08:15:56;;;;;;;14.00;12.90;;;;;;;12.70;nan;97283.41;4899018;28;20222;-65
2023/05/02 08:18:25;;;;;;;15.33;13.83;;;;;;;11.94;nan;97287.50;4933498;28;20256;-65
2023/05/02 08:20:54;;;;;;;13.83;12.83;;;;;;;12.27;nan;97297.59;4913733;28;20269;-65
2023/05/02 08:23:22;;;;;;;14.90;13.47;;;;;;;12.40;nan;97287.09;4933821;28;20531;-65
2023/05/02 08:25:50;;;;;;;14.17;12.97;;;;;;;12.62;nan;97300.31;4912959;28;20217;-65
2023/05/02 08:28:18;;;;;;;14.60;13.50;;;;;;;12.43;nan;97302.66;4934115;28;20806;-64
2023/05/02 08:30:46;;;;;;;13.63;12.53;;;;;;;12.85;nan;97304.56;4928055;28;20227;-66
2023/05/02 08:33:14;;;;;;;13.20;12.30;;;;;;;12.68;nan;97301.38;4907670;28;20214;-65
2023/05/02 08:35:43;;;;;;;13.67;12.47;;;;;;;13.39;nan;97304.81;4918931;28;20631;-65
2023/05/02 08:38:11;;;;;;;14.23;13.13;;;;;;;13.19;nan;97294.91;4931592;28;20432;-66
2023/05/02 08:40:39;;;;;;;14.03;12.97;;;;;;;13.37;nan;97301.53;4913369;28;20218;-64
2023/05/02 08:43:10;;;;;;;13.57;12.47;;;;;;;13.13;nan;97309.00;4934161;28;20401;-65
2023/05/02 08:45:39;;;;;;;13.83;12.73;;;;;;;12.66;nan;97311.38;4936732;28;20206;-64
2023/05/02 08:48:09;;;;;;;12.03;11.23;;;;;;;13.22;nan;97313.13;4895490;28;20817;-65
2023/05/02 08:50:40;;;;;;;15.10;13.80;;;;;;;13.60;nan;97309.19;4937120;28;21081;-64
2023/05/02 08:53:10;;;;;;;13.70;12.60;;;;;;;13.89;nan;97312.56;4911659;28;20218;-66
2023/05/02 08:55:39;;;;;;;14.40;13.30;;;;;;;14.13;nan;97313.81;4936989;28;20218;-65
2023/05/02 08:58:08;;;;;;;13.47;12.37;;;;;;;13.73;nan;97313.75;4913114;28;20241;-64
2023/05/02 09:00:39;;;;;;;13.43;12.33;;;;;;;14.11;nan;97309.72;4936646;28;20207;-65
2023/05/02 09:03:11;;;;;;;12.60;11.70;;;;;;;13.74;nan;97326.03;4891730;28;21640;-64
2023/05/02 09:05:41;;;;;;;11.93;10.93;;;;;;;14.45;nan;97324.69;4934617;28;20851;-66
2023/05/02 09:08:10;;;;;;;13.27;12.17;;;;;;;14.36;nan;97325.94;4911407;28;20479;-65
2023/05/02 09:10:39;;;;;;;11.77;10.80;;;;;;;14.42;nan;97333.09;4938247;28;20207;-65
2023/05/02 09:13:32;;;;;;;10.73;10.03;;;;;;;14.98;nan;97339.06;4902499;28;20519;-65
2023/05/02 09:16:02;;;;;;;10.23;9.50;;;;;;;14.29;nan;97331.25;4932393;28;20545;-68
2023/05/02 09:18:31;;;;;;;10.70;9.80;;;;;;;15.07;nan;97342.28;4888840;28;20633;-64
2023/05/02 09:21:00;;;;;;;11.33;10.30;;;;;;;15.36;nan;97336.69;4934541;28;20205;-65
2023/05/02 09:23:40;;;;;;;11.47;10.43;;;;;;;15.24;nan;97337.31;4915055;28;20214;-64
2023/05/02 09:26:17;;;;;;;11.50;10.53;;;;;;;15.36;nan;97340.16;4933599;28;20475;-65
2023/05/02 09:28:46;;;;;;;11.13;10.33;;;;;;;15.39;nan;97337.06;4912778;28;20665;-65
2023/05/02 09:31:15;;;;;;;11.80;10.87;;;;;;;15.16;nan;97338.41;4931948;28;20434;-63
2023/05/02 09:33:50;;;;;;;11.30;10.50;;;;;;;15.32;nan;97349.63;4921281;28;20236;-66
2023/05/02 09:36:20;;;;;;;10.97;10.17;;;;;;;15.17;nan;97352.53;4912281;28;20230;-64
2023/05/02 09:38:50;;;;;;;11.77;10.77;;;;;;;15.00;nan;97353.00;4913144;28;20241;-65
2023/05/02 09:41:19;;;;;;;11.03;9.93;;;;;;;14.93;nan;97354.84;4933640;28;20888;-63
2023/05/02 09:43:55;;;;;;;11.73;10.83;;;;;;;14.72;nan;97353.22;4912408;28;20258;-64
2023/05/02 09:46:23;;;;;;;11.40;10.47;;;;;;;14.67;nan;97355.66;4932370;28;20222;-63
2023/05/02 09:48:53;;;;;;;12.30;11.30;;;;;;;14.50;nan;97347.25;4920264;28;20230;-65
2023/05/02 09:51:22;;;;;;;12.67;11.57;;;;;;;14.43;nan;97364.06;4917153;28;20230;-66
2023/05/02 09:53:52;;;;;;;13.03;11.80;;;;;;;14.47;nan;97359.16;4913158;28;20215;-67
2023/05/02 09:56:20;;;;;;;12.13;11.03;;;;;;;14.28;nan;97360.78;4933786;28;20466;-66
2023/05/02 09:58:49;;;;;;;12.40;11.30;;;;;;;14.26;nan;97362.84;4912083;28;20310;-66
2023/05/02 10:01:18;;;;;;;12.00;11.10;;;;;;;13.99;nan;97346.81;4929685;28;20221;-65
2023/05/02 10:03:47;;;;;;;11.67;10.57;;;;;;;13.92;nan;97367.28;4932185;28;20265;-65
2023/05/02 10:06:15;;;;;;;12.20;11.10;;;;;;;14.08;nan;97366.09;4895854;28;20917;-66
2023/05/02 10:08:44;;;;;;;12.07;11.17;;;;;;;14.14;nan;97365.28;4932592;28;20225;-66
2023/05/02 10:11:13;;;;;;;12.90;12.00;;;;;;;14.34;nan;97359.97;4909408;28;20218;-65
2023/05/02 10:13:43;;;;;;;12.17;11.27;;;;;;;14.09;nan;97367.72;4937372;28;20435;-64
2023/05/02 10:16:12;;;;;;;12.37;11.53;;;;;;;14.34;nan;97365.31;4910064;28;20245;-65
2023/05/02 10:18:43;;;;;;;12.70;11.57;;;;;;;14.26;nan;97362.84;4931597;28;21062;-66
2023/05/02 10:21:11;;;;;;;12.53;11.33;;;;;;;14.51;nan;97367.56;4896430;28;20607;-66
2023/05/02 10:23:42;;;;;;;11.70;10.60;;;;;;;14.42;nan;97375.75;4937290;28;20459;-67
2023/05/02 10:26:12;;;;;;;11.83;10.83;;;;;;;14.93;nan;97375.38;4915082;28;20222;-65
2023/05/02 10:28:41;;;;;;;12.57;11.57;;;;;;;15.28;nan;97370.56;4938187;28;20234;-66
2023/05/02 10:31:10;;;;;;;12.87;11.87;;;;;;;15.46;nan;97369.09;4911765;28;20619;-65
2023/05/02 10:33:39;;;;;;;12.00;11.13;;;;;;;15.76;nan;97369.38;4942104;28;20238;-65
2023/05/02 10:36:08;;;;;;;11.30;10.43;;;;;;;16.09;nan;97367.59;4896287;28;20530;-64
2023/05/02 10:38:36;;;;;;;11.57;10.77;;;;;;;15.86;nan;97360.06;4935922;28;20564;-64
2023/05/02 10:41:08;;;;;;;11.37;10.57;;;;;;;15.90;nan;97364.00;4915046;28;20416;-65
2023/05/02 10:43:37;;;;;;;11.27;10.47;;;;;;;15.91;nan;97366.47;4940133;28;20213;-65
2023/05/02 10:46:31;;;;;;;10.87;9.97;;;;;;;15.61;nan;97363.50;4915559;28;20900;-65
2023/05/02 10:49:04;;;;;;;11.07;10.27;;;;;;;15.80;nan;97358.25;4932338;28;20514;-65
2023/05/02 10:51:33;;;;;;;12.00;11.00;;;;;;;15.92;nan;97353.94;4941046;28;20206;-64
2023/05/02 10:54:20;;;;;;;11.20;10.30;;;;;;;16.12;nan;97353.81;4898990;28;20620;-63
2023/05/02 10:57:06;;;;;;;11.93;11.07;;;;;;;16.08;nan;97357.13;4919940;28;20210;-63
2023/05/02 10:59:36;;;;;;;11.07;10.17;;;;;;;16.31;nan;97351.22;4932573;28;20527;-63
2023/05/02 11:02:06;;;;;;;11.23;10.47;;;;;;;16.28;nan;97352.44;4912112;28;20269;-60
2023/05/02 11:04:59;;;;;;;10.70;9.93;;;;;;;16.12;nan;97348.47;4940388;28;20671;-61
2023/05/02 11:07:28;;;;;;;10.60;9.70;;;;;;;15.87;nan;97351.88;4879573;28;20264;-63
2023/05/02 11:10:26;;;;;;;9.80;9.13;;;;;;;16.28;nan;97344.44;4935847;28;20225;-62
2023/05/02 11:12:55;;;;;;;10.67;9.83;;;;;;;16.46;nan;97349.03;4916766;28;20238;-63
2023/05/02 11:15:59;;;;;;;9.70;9.00;;;;;;;16.41;nan;97346.19;4938534;28;20640;-59
2023/05/02 11:19:00;;;;;;;9.63;8.93;;;;;;;17.15;nan;97356.28;4904722;28;20241;-63
2023/05/02 11:21:31;;;;;;;8.57;7.87;;;;;;;17.21;nan;97343.84;4932387;28;21037;-63
2023/05/02 11:24:37;;;;;;;8.97;8.27;;;;;;;16.71;nan;97348.22;4885348;28;20620;-64
2023/05/02 11:27:38;;;;;;;8.30;7.60;;;;;;;17.07;nan;97337.84;4915533;28;20447;-62
2023/05/02 11:30:08;;;;;;;8.07;7.33;;;;;;;17.53;nan;97345.56;4933096;28;20742;-61
2023/05/02 11:33:16;;;;;;;7.37;6.87;;;;;;;17.65;nan;97338.38;4922453;28;20230;-64
2023/05/02 11:35:46;;;;;;;10.20;7.57;;;;;;;17.56;nan;97345.91;4937540;28;20213;-65
2023/05/02 11:38:16;;;;;;;7.47;6.87;;;;;;;17.74;nan;97336.22;4934216;28;20241;-66
2023/05/02 11:41:05;;;;;;;7.33;6.73;;;;;;;17.61;nan;97335.34;4887889;28;20215;-60
2023/05/02 11:43:32;;;;;;;6.83;6.43;;;;;;;17.39;nan;97334.97;4905663;28;20210;-65
2023/05/02 11:46:01;;;;;;;7.63;6.60;;;;;;;18.00;nan;97324.31;4937534;28;20499;-61
2023/05/02 11:48:30;;;;;;;7.00;6.50;;;;;;;18.65;nan;97333.44;4923900;28;20737;-64
2023/05/02 11:51:03;;;;;;;6.90;6.37;;;;;;;18.41;nan;97332.63;4924958;28;20779;-64
2023/05/02 11:53:32;;;;;;;5.90;5.50;;;;;;;18.66;nan;97329.72;4935567;28;20954;-63